sensor_id;sensor_type;location;lat;lon;timestamp;P1;durP1;ratioP1;P2;durP2;ratioP2
69410;SDS011;56604;48.652;9.194;2023-04-10T00:00:06;14.10;;;9.87;;
69410;SDS011;56604;48.652;9.194;2023-04-10T00:02:33;13.70;;;9.70;;
69410;SDS011;56604;48.652;9.194;2023-04-10T00:04:59;15.23;;;9.90;;
69410;SDS011;56604;48.652;9.194;2023-04-10T00:07:24;13.40;;;9.47;;
69410;SDS011;56604;48.652;9.194;2023-04-10T00:09:50;13.63;;;9.40;;
69410;SDS011;56604;48.652;9.194;2023-04-10T00:12:15;14.77;;;9.40;;
69410;SDS011;56604;48.652;9.194;2023-04-10T00:14:41;15.10;;;9.80;;
69410;SDS011;56604;48.652;9.194;2023-04-10T00:17:06;15.17;;;10.23;;
69410;SDS011;56604;48.652;9.194;2023-04-10T00:19:32;14.47;;;10.27;;
69410;SDS011;56604;48.652;9.194;2023-04-10T00:21:57;16.23;;;10.17;;
69410;SDS011;56604;48.652;9.194;2023-04-10T00:24:23;15.10;;;9.10;;
69410;SDS011;56604;48.652;9.194;2023-04-10T00:26:48;14.27;;;10.20;;
69410;SDS011;56604;48.652;9.194;2023-04-10T00:29:13;14.90;;;9.70;;
69410;SDS011;56604;48.652;9.194;2023-04-10T00:31:39;14.57;;;8.37;;
69410;SDS011;56604;48.652;9.194;2023-04-10T00:34:04;13.10;;;9.20;;
69410;SDS011;56604;48.652;9.194;2023-04-10T00:36:30;11.70;;;8.63;;
69410;SDS011;56604;48.652;9.194;2023-04-10T00:38:56;13.53;;;8.87;;
69410;SDS011;56604;48.652;9.194;2023-04-10T00:41:21;14.30;;;9.13;;
69410;SDS011;56604;48.652;9.194;2023-04-10T00:43:47;12.30;;;8.57;;
69410;SDS011;56604;48.652;9.194;2023-04-10T00:46:13;13.93;;;9.20;;
69410;SDS011;56604;48.652;9.194;2023-04-10T00:48:39;12.50;;;8.70;;
69410;SDS011;56604;48.652;9.194;2023-04-10T00:51:05;13.03;;;8.67;;
69410;SDS011;56604;48.652;9.194;2023-04-10T00:53:30;11.17;;;8.93;;
69410;SDS011;56604;48.652;9.194;2023-04-10T00:55:56;15.20;;;8.70;;
69410;SDS011;56604;48.652;9.194;2023-04-10T00:58:22;12.07;;;8.80;;
69410;SDS011;56604;48.652;9.194;2023-04-10T01:00:48;12.63;;;8.30;;
69410;SDS011;56604;48.652;9.194;2023-04-10T01:03:14;12.83;;;8.80;;
69410;SDS011;56604;48.652;9.194;2023-04-10T01:08:29;14.83;;;8.50;;
69410;SDS011;56604;48.652;9.194;2023-04-10T01:16:50;11.50;;;8.53;;
69410;SDS011;56604;48.652;9.194;2023-04-10T01:19:30;13.83;;;8.93;;
69410;SDS011;56604;48.652;9.194;2023-04-10T01:21:58;12.93;;;8.83;;
69410;SDS011;56604;48.652;9.194;2023-04-10T01:27:39;10.27;;;8.10;;
69410;SDS011;56604;48.652;9.194;2023-04-10T01:30:16;12.20;;;8.77;;
69410;SDS011;56604;48.652;9.194;2023-04-10T01:32:44;11.60;;;9.03;;
69410;SDS011;56604;48.652;9.194;2023-04-10T01:35:09;14.37;;;9.50;;
69410;SDS011;56604;48.652;9.194;2023-04-10T01:37:39;12.57;;;8.30;;
69410;SDS011;56604;48.652;9.194;2023-04-10T01:40:08;11.73;;;8.47;;
69410;SDS011;56604;48.652;9.194;2023-04-10T01:42:56;10.63;;;8.30;;
69410;SDS011;56604;48.652;9.194;2023-04-10T01:45:24;12.10;;;9.03;;
69410;SDS011;56604;48.652;9.194;2023-04-10T01:47:52;10.97;;;8.23;;
69410;SDS011;56604;48.652;9.194;2023-04-10T01:50:19;11.50;;;8.47;;
69410;SDS011;56604;48.652;9.194;2023-04-10T01:52:47;9.80;;;7.93;;
69410;SDS011;56604;48.652;9.194;2023-04-10T01:55:14;14.77;;;8.83;;
69410;SDS011;56604;48.652;9.194;2023-04-10T01:57:39;12.50;;;9.37;;
69410;SDS011;56604;48.652;9.194;2023-04-10T02:00:05;12.80;;;9.33;;
69410;SDS011;56604;48.652;9.194;2023-04-10T02:02:31;11.83;;;8.57;;
69410;SDS011;56604;48.652;9.194;2023-04-10T02:04:57;22.07;;;9.67;;
69410;SDS011;56604;48.652;9.194;2023-04-10T02:10:14;14.40;;;9.20;;
69410;SDS011;56604;48.652;9.194;2023-04-10T02:12:50;11.03;;;8.20;;
69410;SDS011;56604;48.652;9.194;2023-04-10T02:15:20;12.10;;;9.43;;
69410;SDS011;56604;48.652;9.194;2023-04-10T02:17:47;14.30;;;8.73;;
69410;SDS011;56604;48.652;9.194;2023-04-10T02:20:13;58.40;;;21.57;;
69410;SDS011;56604;48.652;9.194;2023-04-10T02:22:40;68.67;;;24.90;;
69410;SDS011;56604;48.652;9.194;2023-04-10T02:25:10;16.50;;;9.30;;
69410;SDS011;56604;48.652;9.194;2023-04-10T02:27:36;12.53;;;9.17;;
69410;SDS011;56604;48.652;9.194;2023-04-10T02:30:02;14.30;;;8.87;;
69410;SDS011;56604;48.652;9.194;2023-04-10T02:32:28;12.07;;;7.43;;
69410;SDS011;56604;48.652;9.194;2023-04-10T02:34:54;12.20;;;8.60;;
69410;SDS011;56604;48.652;9.194;2023-04-10T02:37:20;11.00;;;7.90;;
69410;SDS011;56604;48.652;9.194;2023-04-10T02:39:46;8.67;;;7.00;;
69410;SDS011;56604;48.652;9.194;2023-04-10T02:42:11;12.33;;;7.97;;
69410;SDS011;56604;48.652;9.194;2023-04-10T02:44:36;9.33;;;7.33;;
69410;SDS011;56604;48.652;9.194;2023-04-10T02:47:03;12.90;;;8.47;;
69410;SDS011;56604;48.652;9.194;2023-04-10T02:49:29;11.17;;;7.77;;
69410;SDS011;56604;48.652;9.194;2023-04-10T02:51:55;13.20;;;8.83;;
69410;SDS011;56604;48.652;9.194;2023-04-10T02:54:20;13.30;;;8.43;;
69410;SDS011;56604;48.652;9.194;2023-04-10T02:56:46;13.73;;;8.80;;
69410;SDS011;56604;48.652;9.194;2023-04-10T02:59:12;11.07;;;8.33;;
69410;SDS011;56604;48.652;9.194;2023-04-10T03:01:37;12.37;;;7.97;;
69410;SDS011;56604;48.652;9.194;2023-04-10T03:04:03;11.40;;;8.20;;
69410;SDS011;56604;48.652;9.194;2023-04-10T03:06:29;10.13;;;8.00;;
69410;SDS011;56604;48.652;9.194;2023-04-10T03:08:55;9.60;;;7.40;;
69410;SDS011;56604;48.652;9.194;2023-04-10T03:11:20;9.70;;;7.23;;
69410;SDS011;56604;48.652;9.194;2023-04-10T03:13:46;13.17;;;8.50;;
69410;SDS011;56604;48.652;9.194;2023-04-10T03:16:12;14.67;;;8.73;;
69410;SDS011;56604;48.652;9.194;2023-04-10T03:18:38;13.87;;;8.77;;
69410;SDS011;56604;48.652;9.194;2023-04-10T03:21:04;15.73;;;9.10;;
69410;SDS011;56604;48.652;9.194;2023-04-10T03:23:29;12.10;;;8.67;;
69410;SDS011;56604;48.652;9.194;2023-04-10T03:25:54;13.93;;;8.83;;
69410;SDS011;56604;48.652;9.194;2023-04-10T03:28:20;12.40;;;8.50;;
69410;SDS011;56604;48.652;9.194;2023-04-10T03:30:46;13.97;;;9.23;;
69410;SDS011;56604;48.652;9.194;2023-04-10T03:33:12;13.00;;;9.03;;
69410;SDS011;56604;48.652;9.194;2023-04-10T03:35:38;11.97;;;8.70;;
69410;SDS011;56604;48.652;9.194;2023-04-10T03:38:03;12.07;;;8.10;;
69410;SDS011;56604;48.652;9.194;2023-04-10T03:40:28;11.63;;;8.40;;
69410;SDS011;56604;48.652;9.194;2023-04-10T03:42:54;11.57;;;8.37;;
69410;SDS011;56604;48.652;9.194;2023-04-10T03:45:19;11.30;;;8.00;;
69410;SDS011;56604;48.652;9.194;2023-04-10T03:47:45;10.83;;;8.13;;
69410;SDS011;56604;48.652;9.194;2023-04-10T03:50:10;11.30;;;7.70;;
69410;SDS011;56604;48.652;9.194;2023-04-10T03:52:35;11.23;;;8.13;;
69410;SDS011;56604;48.652;9.194;2023-04-10T03:55:01;9.60;;;7.50;;
69410;SDS011;56604;48.652;9.194;2023-04-10T03:57:26;9.10;;;6.73;;
69410;SDS011;56604;48.652;9.194;2023-04-10T03:59:51;9.93;;;7.73;;
69410;SDS011;56604;48.652;9.194;2023-04-10T04:02:16;14.97;;;9.90;;
69410;SDS011;56604;48.652;9.194;2023-04-10T04:04:42;13.17;;;9.57;;
69410;SDS011;56604;48.652;9.194;2023-04-10T04:07:07;13.53;;;9.03;;
69410;SDS011;56604;48.652;9.194;2023-04-10T04:09:34;19.20;;;9.93;;
69410;SDS011;56604;48.652;9.194;2023-04-10T04:11:59;13.73;;;9.30;;
69410;SDS011;56604;48.652;9.194;2023-04-10T04:14:25;12.97;;;8.80;;
69410;SDS011;56604;48.652;9.194;2023-04-10T04:16:50;12.90;;;9.37;;
69410;SDS011;56604;48.652;9.194;2023-04-10T04:19:15;12.87;;;8.90;;
69410;SDS011;56604;48.652;9.194;2023-04-10T04:21:41;14.03;;;9.67;;
69410;SDS011;56604;48.652;9.194;2023-04-10T04:24:06;11.83;;;8.90;;
69410;SDS011;56604;48.652;9.194;2023-04-10T04:26:32;12.43;;;9.17;;
69410;SDS011;56604;48.652;9.194;2023-04-10T04:28:57;13.00;;;9.20;;
69410;SDS011;56604;48.652;9.194;2023-04-10T04:31:23;17.13;;;8.03;;
69410;SDS011;56604;48.652;9.194;2023-04-10T04:33:49;13.00;;;9.03;;
69410;SDS011;56604;48.652;9.194;2023-04-10T04:36:14;11.20;;;8.10;;
69410;SDS011;56604;48.652;9.194;2023-04-10T04:38:40;13.07;;;8.93;;
69410;SDS011;56604;48.652;9.194;2023-04-10T04:41:06;12.53;;;8.90;;
69410;SDS011;56604;48.652;9.194;2023-04-10T04:43:31;14.47;;;8.90;;
69410;SDS011;56604;48.652;9.194;2023-04-10T04:45:56;12.77;;;8.70;;
69410;SDS011;56604;48.652;9.194;2023-04-10T04:48:22;13.17;;;8.63;;
69410;SDS011;56604;48.652;9.194;2023-04-10T04:50:47;11.87;;;8.20;;
69410;SDS011;56604;48.652;9.194;2023-04-10T04:53:12;11.80;;;8.43;;
69410;SDS011;56604;48.652;9.194;2023-04-10T04:55:37;10.90;;;7.93;;
69410;SDS011;56604;48.652;9.194;2023-04-10T04:58:03;9.43;;;7.67;;
69410;SDS011;56604;48.652;9.194;2023-04-10T05:00:28;11.97;;;7.93;;
69410;SDS011;56604;48.652;9.194;2023-04-10T05:02:53;11.23;;;8.17;;
69410;SDS011;56604;48.652;9.194;2023-04-10T05:05:19;10.40;;;7.53;;
69410;SDS011;56604;48.652;9.194;2023-04-10T05:07:44;10.60;;;7.97;;
69410;SDS011;56604;48.652;9.194;2023-04-10T05:10:10;11.63;;;7.90;;
69410;SDS011;56604;48.652;9.194;2023-04-10T05:12:35;9.37;;;7.50;;
69410;SDS011;56604;48.652;9.194;2023-04-10T05:15:00;11.20;;;7.67;;
69410;SDS011;56604;48.652;9.194;2023-04-10T05:17:26;9.67;;;7.33;;
69410;SDS011;56604;48.652;9.194;2023-04-10T05:19:51;10.30;;;8.20;;
69410;SDS011;56604;48.652;9.194;2023-04-10T05:22:16;10.03;;;7.60;;
69410;SDS011;56604;48.652;9.194;2023-04-10T05:24:42;13.63;;;8.30;;
69410;SDS011;56604;48.652;9.194;2023-04-10T05:27:07;11.10;;;8.10;;
69410;SDS011;56604;48.652;9.194;2023-04-10T05:29:32;10.20;;;7.57;;
69410;SDS011;56604;48.652;9.194;2023-04-10T05:31:58;11.73;;;7.37;;
69410;SDS011;56604;48.652;9.194;2023-04-10T05:34:23;10.13;;;7.07;;
69410;SDS011;56604;48.652;9.194;2023-04-10T05:36:49;8.90;;;7.07;;
69410;SDS011;56604;48.652;9.194;2023-04-10T05:39:14;9.60;;;7.67;;
69410;SDS011;56604;48.652;9.194;2023-04-10T05:41:40;10.70;;;8.20;;
69410;SDS011;56604;48.652;9.194;2023-04-10T05:44:05;11.50;;;8.47;;
69410;SDS011;56604;48.652;9.194;2023-04-10T05:46:31;13.80;;;9.03;;
69410;SDS011;56604;48.652;9.194;2023-04-10T05:48:56;14.27;;;9.10;;
69410;SDS011;56604;48.652;9.194;2023-04-10T05:51:22;11.50;;;8.87;;
69410;SDS011;56604;48.652;9.194;2023-04-10T05:53:47;21.70;;;10.53;;
69410;SDS011;56604;48.652;9.194;2023-04-10T05:56:12;12.57;;;9.03;;
69410;SDS011;56604;48.652;9.194;2023-04-10T05:58:38;15.03;;;8.57;;
69410;SDS011;56604;48.652;9.194;2023-04-10T06:01:03;10.30;;;7.07;;
69410;SDS011;56604;48.652;9.194;2023-04-10T06:03:29;8.90;;;7.70;;
69410;SDS011;56604;48.652;9.194;2023-04-10T06:05:54;14.20;;;7.20;;
69410;SDS011;56604;48.652;9.194;2023-04-10T06:08:20;8.37;;;6.80;;
69410;SDS011;56604;48.652;9.194;2023-04-10T06:10:47;10.60;;;8.10;;
69410;SDS011;56604;48.652;9.194;2023-04-10T06:13:12;10.20;;;7.37;;
69410;SDS011;56604;48.652;9.194;2023-04-10T06:15:39;12.03;;;8.13;;
69410;SDS011;56604;48.652;9.194;2023-04-10T06:18:04;9.37;;;7.70;;
69410;SDS011;56604;48.652;9.194;2023-04-10T06:20:30;14.80;;;9.50;;
69410;SDS011;56604;48.652;9.194;2023-04-10T06:22:55;10.60;;;8.30;;
69410;SDS011;56604;48.652;9.194;2023-04-10T06:25:20;19.83;;;7.57;;
69410;SDS011;56604;48.652;9.194;2023-04-10T06:27:46;8.63;;;7.63;;
69410;SDS011;56604;48.652;9.194;2023-04-10T06:30:11;8.77;;;7.50;;
69410;SDS011;56604;48.652;9.194;2023-04-10T06:32:36;8.97;;;7.67;;
69410;SDS011;56604;48.652;9.194;2023-04-10T06:35:02;9.33;;;7.50;;
69410;SDS011;56604;48.652;9.194;2023-04-10T06:37:28;9.23;;;6.97;;
69410;SDS011;56604;48.652;9.194;2023-04-10T06:40:05;12.53;;;8.23;;
69410;SDS011;56604;48.652;9.194;2023-04-10T06:42:35;7.83;;;7.00;;
69410;SDS011;56604;48.652;9.194;2023-04-10T06:45:01;11.70;;;8.63;;
69410;SDS011;56604;48.652;9.194;2023-04-10T06:47:27;9.63;;;7.50;;
69410;SDS011;56604;48.652;9.194;2023-04-10T06:49:52;8.10;;;6.90;;
69410;SDS011;56604;48.652;9.194;2023-04-10T06:52:18;8.30;;;6.97;;
69410;SDS011;56604;48.652;9.194;2023-04-10T06:54:44;8.13;;;7.07;;
69410;SDS011;56604;48.652;9.194;2023-04-10T06:57:09;7.87;;;6.87;;
69410;SDS011;56604;48.652;9.194;2023-04-10T06:59:35;9.00;;;7.00;;
69410;SDS011;56604;48.652;9.194;2023-04-10T07:02:03;11.07;;;7.13;;
69410;SDS011;56604;48.652;9.194;2023-04-10T07:04:29;9.70;;;7.57;;
69410;SDS011;56604;48.652;9.194;2023-04-10T07:06:55;7.50;;;6.53;;
69410;SDS011;56604;48.652;9.194;2023-04-10T07:09:20;8.03;;;7.23;;
69410;SDS011;56604;48.652;9.194;2023-04-10T07:11:45;7.10;;;6.40;;
69410;SDS011;56604;48.652;9.194;2023-04-10T07:14:11;11.17;;;8.63;;
69410;SDS011;56604;48.652;9.194;2023-04-10T07:16:36;8.07;;;7.23;;
69410;SDS011;56604;48.652;9.194;2023-04-10T07:19:02;8.87;;;7.60;;
69410;SDS011;56604;48.652;9.194;2023-04-10T07:21:27;10.23;;;8.13;;
69410;SDS011;56604;48.652;9.194;2023-04-10T07:23:53;9.13;;;7.67;;
69410;SDS011;56604;48.652;9.194;2023-04-10T07:26:18;8.33;;;6.40;;
69410;SDS011;56604;48.652;9.194;2023-04-10T07:28:43;6.37;;;5.77;;
69410;SDS011;56604;48.652;9.194;2023-04-10T07:31:09;6.80;;;6.03;;
69410;SDS011;56604;48.652;9.194;2023-04-10T07:33:36;6.47;;;5.80;;
69410;SDS011;56604;48.652;9.194;2023-04-10T07:36:04;6.27;;;5.50;;
69410;SDS011;56604;48.652;9.194;2023-04-10T07:38:31;7.13;;;6.17;;
69410;SDS011;56604;48.652;9.194;2023-04-10T07:40:57;8.17;;;5.50;;
69410;SDS011;56604;48.652;9.194;2023-04-10T07:43:23;5.60;;;5.03;;
69410;SDS011;56604;48.652;9.194;2023-04-10T07:45:49;6.10;;;5.50;;
69410;SDS011;56604;48.652;9.194;2023-04-10T07:48:14;5.50;;;4.97;;
69410;SDS011;56604;48.652;9.194;2023-04-10T07:50:39;5.20;;;4.70;;
69410;SDS011;56604;48.652;9.194;2023-04-10T07:53:05;6.17;;;5.00;;
69410;SDS011;56604;48.652;9.194;2023-04-10T07:55:42;5.60;;;5.10;;
69410;SDS011;56604;48.652;9.194;2023-04-10T07:58:08;5.43;;;4.93;;
69410;SDS011;56604;48.652;9.194;2023-04-10T08:00:33;4.57;;;4.17;;
69410;SDS011;56604;48.652;9.194;2023-04-10T08:02:59;4.63;;;4.23;;
69410;SDS011;56604;48.652;9.194;2023-04-10T08:05:25;6.43;;;4.53;;
69410;SDS011;56604;48.652;9.194;2023-04-10T08:07:50;5.73;;;5.07;;
69410;SDS011;56604;48.652;9.194;2023-04-10T08:10:16;5.20;;;4.70;;
69410;SDS011;56604;48.652;9.194;2023-04-10T08:12:41;4.80;;;4.40;;
69410;SDS011;56604;48.652;9.194;2023-04-10T08:15:06;4.67;;;4.27;;
69410;SDS011;56604;48.652;9.194;2023-04-10T08:17:32;5.50;;;4.70;;
69410;SDS011;56604;48.652;9.194;2023-04-10T08:19:57;4.50;;;4.10;;
69410;SDS011;56604;48.652;9.194;2023-04-10T08:22:23;4.53;;;4.13;;
69410;SDS011;56604;48.652;9.194;2023-04-10T08:24:48;4.70;;;4.30;;
69410;SDS011;56604;48.652;9.194;2023-04-10T08:27:13;4.97;;;4.37;;
69410;SDS011;56604;48.652;9.194;2023-04-10T08:29:40;5.30;;;4.80;;
69410;SDS011;56604;48.652;9.194;2023-04-10T08:32:05;4.87;;;4.47;;
69410;SDS011;56604;48.652;9.194;2023-04-10T08:34:31;4.50;;;4.10;;
69410;SDS011;56604;48.652;9.194;2023-04-10T08:36:56;4.20;;;3.80;;
69410;SDS011;56604;48.652;9.194;2023-04-10T08:39:21;3.90;;;3.60;;
69410;SDS011;56604;48.652;9.194;2023-04-10T08:41:47;10.30;;;3.70;;
69410;SDS011;56604;48.652;9.194;2023-04-10T08:44:12;4.57;;;4.20;;
69410;SDS011;56604;48.652;9.194;2023-04-10T08:46:40;4.70;;;4.30;;
69410;SDS011;56604;48.652;9.194;2023-04-10T08:49:07;4.30;;;4.00;;
69410;SDS011;56604;48.652;9.194;2023-04-10T08:51:35;4.07;;;3.77;;
69410;SDS011;56604;48.652;9.194;2023-04-10T08:54:06;4.43;;;4.13;;
69410;SDS011;56604;48.652;9.194;2023-04-10T08:56:34;4.10;;;3.80;;
69410;SDS011;56604;48.652;9.194;2023-04-10T08:59:03;3.97;;;3.67;;
69410;SDS011;56604;48.652;9.194;2023-04-10T09:01:28;4.60;;;4.20;;
69410;SDS011;56604;48.652;9.194;2023-04-10T09:03:53;4.50;;;3.87;;
69410;SDS011;56604;48.652;9.194;2023-04-10T09:06:19;3.53;;;3.33;;
69410;SDS011;56604;48.652;9.194;2023-04-10T09:08:44;3.97;;;3.67;;
69410;SDS011;56604;48.652;9.194;2023-04-10T09:11:09;4.10;;;3.80;;
69410;SDS011;56604;48.652;9.194;2023-04-10T09:13:38;4.30;;;3.97;;
69410;SDS011;56604;48.652;9.194;2023-04-10T09:16:05;3.47;;;3.20;;
69410;SDS011;56604;48.652;9.194;2023-04-10T09:18:44;4.27;;;3.90;;
69410;SDS011;56604;48.652;9.194;2023-04-10T09:21:12;3.90;;;3.60;;
69410;SDS011;56604;48.652;9.194;2023-04-10T09:23:40;4.20;;;3.87;;
69410;SDS011;56604;48.652;9.194;2023-04-10T09:34:15;3.97;;;3.57;;
69410;SDS011;56604;48.652;9.194;2023-04-10T09:36:55;4.23;;;3.57;;
69410;SDS011;56604;48.652;9.194;2023-04-10T09:39:32;3.70;;;3.50;;
69410;SDS011;56604;48.652;9.194;2023-04-10T09:41:58;3.30;;;3.10;;
69410;SDS011;56604;48.652;9.194;2023-04-10T09:44:32;3.40;;;3.20;;
69410;SDS011;56604;48.652;9.194;2023-04-10T09:47:13;3.03;;;2.83;;
69410;SDS011;56604;48.652;9.194;2023-04-10T09:49:47;3.00;;;2.80;;
69410;SDS011;56604;48.652;9.194;2023-04-10T09:54:43;2.83;;;2.73;;
69410;SDS011;56604;48.652;9.194;2023-04-10T09:57:09;2.40;;;2.30;;
69410;SDS011;56604;48.652;9.194;2023-04-10T09:59:37;2.43;;;2.33;;
69410;SDS011;56604;48.652;9.194;2023-04-10T10:02:04;2.63;;;2.50;;
69410;SDS011;56604;48.652;9.194;2023-04-10T10:04:30;2.47;;;2.37;;
69410;SDS011;56604;48.652;9.194;2023-04-10T10:06:57;2.67;;;2.57;;
69410;SDS011;56604;48.652;9.194;2023-04-10T10:09:23;2.33;;;2.23;;
69410;SDS011;56604;48.652;9.194;2023-04-10T10:11:50;2.60;;;2.50;;
69410;SDS011;56604;48.652;9.194;2023-04-10T10:14:17;2.23;;;2.13;;
69410;SDS011;56604;48.652;9.194;2023-04-10T10:16:48;2.63;;;2.43;;
69410;SDS011;56604;48.652;9.194;2023-04-10T10:19:18;2.37;;;2.27;;
69410;SDS011;56604;48.652;9.194;2023-04-10T10:21:48;1.80;;;1.80;;
69410;SDS011;56604;48.652;9.194;2023-04-10T10:24:16;2.70;;;2.60;;
69410;SDS011;56604;48.652;9.194;2023-04-10T10:26:44;2.43;;;2.33;;
69410;SDS011;56604;48.652;9.194;2023-04-10T10:29:11;2.57;;;2.37;;
69410;SDS011;56604;48.652;9.194;2023-04-10T10:31:41;2.50;;;2.40;;
69410;SDS011;56604;48.652;9.194;2023-04-10T10:34:06;2.40;;;2.30;;
69410;SDS011;56604;48.652;9.194;2023-04-10T10:36:37;2.27;;;2.17;;
69410;SDS011;56604;48.652;9.194;2023-04-10T10:39:17;2.30;;;2.10;;
69410;SDS011;56604;48.652;9.194;2023-04-10T10:42:03;3.30;;;2.00;;
69410;SDS011;56604;48.652;9.194;2023-04-10T10:47:27;1.70;;;1.70;;
69410;SDS011;56604;48.652;9.194;2023-04-10T10:49:55;2.10;;;2.00;;
69410;SDS011;56604;48.652;9.194;2023-04-10T10:52:42;7.00;;;2.40;;
69410;SDS011;56604;48.652;9.194;2023-04-10T10:57:52;2.50;;;2.40;;
69410;SDS011;56604;48.652;9.194;2023-04-10T11:00:18;1.87;;;1.80;;
69410;SDS011;56604;48.652;9.194;2023-04-10T11:02:44;1.73;;;1.70;;
69410;SDS011;56604;48.652;9.194;2023-04-10T11:05:10;1.80;;;1.80;;
69410;SDS011;56604;48.652;9.194;2023-04-10T11:08:34;1.67;;;1.67;;
69410;SDS011;56604;48.652;9.194;2023-04-10T11:11:01;1.97;;;1.87;;
69410;SDS011;56604;48.652;9.194;2023-04-10T11:13:29;1.53;;;1.53;;
69410;SDS011;56604;48.652;9.194;2023-04-10T11:15:56;1.87;;;1.77;;
69410;SDS011;56604;48.652;9.194;2023-04-10T11:21:11;1.60;;;1.60;;
69410;SDS011;56604;48.652;9.194;2023-04-10T11:24:22;1.70;;;1.70;;
69410;SDS011;56604;48.652;9.194;2023-04-10T11:29:02;1.50;;;1.50;;
69410;SDS011;56604;48.652;9.194;2023-04-10T11:31:38;1.40;;;1.40;;
69410;SDS011;56604;48.652;9.194;2023-04-10T11:34:07;1.60;;;1.60;;
69410;SDS011;56604;48.652;9.194;2023-04-10T11:36:40;1.40;;;1.40;;
69410;SDS011;56604;48.652;9.194;2023-04-10T11:39:08;1.33;;;1.33;;
69410;SDS011;56604;48.652;9.194;2023-04-10T11:41:35;1.30;;;1.30;;
69410;SDS011;56604;48.652;9.194;2023-04-10T11:44:13;1.10;;;1.10;;
69410;SDS011;56604;48.652;9.194;2023-04-10T11:46:41;0.90;;;0.90;;
69410;SDS011;56604;48.652;9.194;2023-04-10T11:49:10;1.23;;;0.90;;
69410;SDS011;56604;48.652;9.194;2023-04-10T11:51:37;0.90;;;0.90;;
69410;SDS011;56604;48.652;9.194;2023-04-10T11:54:07;1.10;;;1.10;;
69410;SDS011;56604;48.652;9.194;2023-04-10T11:56:34;1.17;;;1.17;;
69410;SDS011;56604;48.652;9.194;2023-04-10T11:59:00;0.90;;;0.90;;
69410;SDS011;56604;48.652;9.194;2023-04-10T12:01:26;1.10;;;1.10;;
69410;SDS011;56604;48.652;9.194;2023-04-10T12:03:52;0.83;;;0.83;;
69410;SDS011;56604;48.652;9.194;2023-04-10T12:06:17;1.20;;;1.20;;
69410;SDS011;56604;48.652;9.194;2023-04-10T12:08:44;1.20;;;1.20;;
69410;SDS011;56604;48.652;9.194;2023-04-10T12:11:16;1.20;;;1.20;;
69410;SDS011;56604;48.652;9.194;2023-04-10T12:13:44;1.20;;;1.20;;
69410;SDS011;56604;48.652;9.194;2023-04-10T12:16:10;0.93;;;0.93;;
69410;SDS011;56604;48.652;9.194;2023-04-10T12:18:35;1.30;;;1.27;;
69410;SDS011;56604;48.652;9.194;2023-04-10T12:21:01;1.00;;;1.00;;
69410;SDS011;56604;48.652;9.194;2023-04-10T12:23:28;3.63;;;1.30;;
69410;SDS011;56604;48.652;9.194;2023-04-10T12:26:11;1.40;;;1.40;;
69410;SDS011;56604;48.652;9.194;2023-04-10T12:28:41;1.30;;;1.30;;
69410;SDS011;56604;48.652;9.194;2023-04-10T12:31:14;3.07;;;1.80;;
69410;SDS011;56604;48.652;9.194;2023-04-10T12:33:43;1.30;;;1.30;;
69410;SDS011;56604;48.652;9.194;2023-04-10T12:36:19;1.40;;;1.40;;
69410;SDS011;56604;48.652;9.194;2023-04-10T12:38:45;1.40;;;1.40;;
69410;SDS011;56604;48.652;9.194;2023-04-10T12:41:10;1.40;;;1.40;;
69410;SDS011;56604;48.652;9.194;2023-04-10T12:43:37;1.20;;;1.20;;
69410;SDS011;56604;48.652;9.194;2023-04-10T12:46:04;1.10;;;1.10;;
69410;SDS011;56604;48.652;9.194;2023-04-10T12:48:30;1.40;;;1.40;;
69410;SDS011;56604;48.652;9.194;2023-04-10T12:50:56;1.40;;;1.40;;
69410;SDS011;56604;48.652;9.194;2023-04-10T12:53:21;1.40;;;1.40;;
69410;SDS011;56604;48.652;9.194;2023-04-10T12:56:03;1.27;;;1.27;;
69410;SDS011;56604;48.652;9.194;2023-04-10T12:58:30;1.70;;;1.63;;
69410;SDS011;56604;48.652;9.194;2023-04-10T13:01:03;1.20;;;1.20;;
69410;SDS011;56604;48.652;9.194;2023-04-10T13:03:30;2.40;;;1.83;;
69410;SDS011;56604;48.652;9.194;2023-04-10T13:05:57;1.53;;;1.43;;
69410;SDS011;56604;48.652;9.194;2023-04-10T13:08:23;1.17;;;1.17;;
69410;SDS011;56604;48.652;9.194;2023-04-10T13:10:48;1.30;;;1.30;;
69410;SDS011;56604;48.652;9.194;2023-04-10T13:13:14;1.50;;;1.50;;
69410;SDS011;56604;48.652;9.194;2023-04-10T13:15:39;1.73;;;1.63;;
69410;SDS011;56604;48.652;9.194;2023-04-10T13:18:05;1.50;;;1.50;;
69410;SDS011;56604;48.652;9.194;2023-04-10T13:20:31;1.60;;;1.60;;
69410;SDS011;56604;48.652;9.194;2023-04-10T13:22:57;1.87;;;1.87;;
69410;SDS011;56604;48.652;9.194;2023-04-10T13:25:23;1.40;;;1.30;;
69410;SDS011;56604;48.652;9.194;2023-04-10T13:27:48;1.73;;;1.63;;
69410;SDS011;56604;48.652;9.194;2023-04-10T13:30:14;1.40;;;1.40;;
69410;SDS011;56604;48.652;9.194;2023-04-10T13:32:39;1.60;;;1.60;;
69410;SDS011;56604;48.652;9.194;2023-04-10T13:35:04;1.57;;;1.57;;
69410;SDS011;56604;48.652;9.194;2023-04-10T13:37:30;1.70;;;1.60;;
69410;SDS011;56604;48.652;9.194;2023-04-10T13:39:55;1.70;;;1.60;;
69410;SDS011;56604;48.652;9.194;2023-04-10T13:42:21;2.60;;;1.50;;
69410;SDS011;56604;48.652;9.194;2023-04-10T13:44:46;1.70;;;1.70;;
69410;SDS011;56604;48.652;9.194;2023-04-10T13:47:11;1.70;;;1.70;;
69410;SDS011;56604;48.652;9.194;2023-04-10T13:49:37;1.73;;;1.63;;
69410;SDS011;56604;48.652;9.194;2023-04-10T13:52:02;1.70;;;1.60;;
69410;SDS011;56604;48.652;9.194;2023-04-10T13:54:27;1.87;;;1.77;;
69410;SDS011;56604;48.652;9.194;2023-04-10T13:56:53;1.83;;;1.73;;
69410;SDS011;56604;48.652;9.194;2023-04-10T13:59:18;1.67;;;1.67;;
69410;SDS011;56604;48.652;9.194;2023-04-10T14:01:44;3.37;;;1.70;;
69410;SDS011;56604;48.652;9.194;2023-04-10T14:04:10;1.80;;;1.80;;
69410;SDS011;56604;48.652;9.194;2023-04-10T14:06:35;1.57;;;1.47;;
69410;SDS011;56604;48.652;9.194;2023-04-10T14:09:00;2.73;;;2.03;;
69410;SDS011;56604;48.652;9.194;2023-04-10T14:11:26;1.47;;;1.47;;
69410;SDS011;56604;48.652;9.194;2023-04-10T14:13:51;2.10;;;2.00;;
69410;SDS011;56604;48.652;9.194;2023-04-10T14:16:17;2.20;;;2.10;;
69410;SDS011;56604;48.652;9.194;2023-04-10T14:18:42;2.10;;;2.00;;
69410;SDS011;56604;48.652;9.194;2023-04-10T14:21:07;1.67;;;1.63;;
69410;SDS011;56604;48.652;9.194;2023-04-10T14:23:33;1.67;;;1.60;;
69410;SDS011;56604;48.652;9.194;2023-04-10T14:25:58;1.67;;;1.57;;
69410;SDS011;56604;48.652;9.194;2023-04-10T14:28:23;1.70;;;1.70;;
69410;SDS011;56604;48.652;9.194;2023-04-10T14:30:49;1.13;;;1.13;;
69410;SDS011;56604;48.652;9.194;2023-04-10T14:33:18;1.60;;;1.57;;
69410;SDS011;56604;48.652;9.194;2023-04-10T14:35:44;1.80;;;1.80;;
69410;SDS011;56604;48.652;9.194;2023-04-10T14:38:10;1.73;;;1.63;;
69410;SDS011;56604;48.652;9.194;2023-04-10T14:40:36;1.50;;;1.50;;
69410;SDS011;56604;48.652;9.194;2023-04-10T14:43:01;1.73;;;1.73;;
69410;SDS011;56604;48.652;9.194;2023-04-10T14:45:27;1.80;;;1.70;;
69410;SDS011;56604;48.652;9.194;2023-04-10T14:47:52;1.97;;;1.90;;
69410;SDS011;56604;48.652;9.194;2023-04-10T14:50:18;2.30;;;1.80;;
69410;SDS011;56604;48.652;9.194;2023-04-10T14:52:43;6.50;;;2.10;;
69410;SDS011;56604;48.652;9.194;2023-04-10T14:55:09;1.90;;;1.80;;
69410;SDS011;56604;48.652;9.194;2023-04-10T14:57:35;2.10;;;2.00;;
69410;SDS011;56604;48.652;9.194;2023-04-10T15:00:00;2.50;;;1.53;;
69410;SDS011;56604;48.652;9.194;2023-04-10T15:02:26;3.33;;;2.00;;
69410;SDS011;56604;48.652;9.194;2023-04-10T15:04:52;1.70;;;1.60;;
69410;SDS011;56604;48.652;9.194;2023-04-10T15:07:17;2.17;;;2.07;;
69410;SDS011;56604;48.652;9.194;2023-04-10T15:09:42;1.90;;;1.80;;
69410;SDS011;56604;48.652;9.194;2023-04-10T15:12:08;1.73;;;1.63;;
69410;SDS011;56604;48.652;9.194;2023-04-10T15:14:34;1.87;;;1.80;;
69410;SDS011;56604;48.652;9.194;2023-04-10T15:16:59;7.13;;;1.93;;